Accueil
METAR-TAF:

METAR-TAF

Aéroports :

Luni

Sarzana, Italie

latitude: 44-05N, longitude: 009-59E, altitude: 9 m

Observation

Le bulletin a été fait il y a 7 heures et 19 minutes, à 13:55 UTC
Vent 8 kt de est, variant entre nord-est et sud-est
Température 31°C
Humidité 55%
Pression 1013 hPa
Visibilité 10 km ou plus
Nuages épars à une hauteur de 2000 ft
Quelques nuages à une hauteur de 2500 ft, Cumulus congestus.

METAR: LIQW 161355Z 09008KT 040V140 9999 SCT020 FEW025TCU 31/21 Q1013 RMK SCT VIS MIN 9999 WIND THR18 11008KT BLU

Heure: 23:14 (21:14 UTC)


TAF: absent

Observations et prévisions météorologiques de plus de 4000 aéroports (messages METAR et TAF).

Les stations disponibles sont représentées par des disques jaunes et rouges sur la carte.

Passer la souris dessus pour voir le nom de la station.

Cliquer dessus pour voir les observations et prévisions météorologiques.

Pour changer de carte: cliquez sur les boutons verts avec une croix noire pour zoomer, sur le bouton vert avec un tiret pour effectuer un zoom arrière, ou sur les flèches vertes pour les cartes adjacentes.


METAR-TAF: